Time;durP1;ratioP1;P1;durP2;ratioP2;P2;SDS_P1;SDS_P2;PMS_P1;PMS_P2;Temp;Humidity;BMP_temperature;BMP_pressure;BME280_temperature;BME280_humidity;BME280_pressure;Samples;Min_cycle;Max_cycle;Signal;HPM_P1;HPM_P2
2023/02/20 00:00:58;;;;;;;;;;;;;;;7.47;94.79;97795.84;5024843;28;19921;-72
2023/02/20 00:03:24;;;;;;;;;;;;;;;7.37;95.00;97796.94;5023152;28;19947;-73
2023/02/20 00:05:49;;;;;;;;;;;;;;;7.40;95.65;97799.06;5027810;28;20018;-73
2023/02/20 00:08:15;;;;;;;;;;;;;;;7.40;95.49;97804.50;5018940;28;19967;-71
2023/02/20 00:10:40;;;;;;;;;;;;;;;7.38;96.14;97809.47;5024508;28;19928;-73
2023/02/20 00:13:06;;;;;;;;;;;;;;;7.39;96.26;97808.34;5017735;28;19917;-72
2023/02/20 00:15:31;;;;;;;;;;;;;;;7.42;96.01;97818.63;5023984;28;19917;-73
2023/02/20 00:17:56;;;;;;;;;;;;;;;7.36;96.39;97813.63;5023864;28;19917;-72
2023/02/20 00:20:23;;;;;;;;;;;;;;;7.39;96.50;97815.72;5018388;28;20615;-73
2023/02/20 00:22:49;;;;;;;;;;;;;;;7.40;96.67;97809.97;5023552;28;19968;-74
2023/02/20 00:25:15;;;;;;;;;;;;;;;7.45;96.72;97809.81;5019248;28;20377;-74
2023/02/20 00:27:41;;;;;;;;;;;;;;;7.46;95.88;97816.06;5023852;28;19964;-73
2023/02/20 00:30:06;;;;;;;;;;;;;;;7.40;96.13;97814.59;5019249;28;19921;-72
2023/02/20 00:32:32;;;;;;;;;;;;;;;7.27;96.56;97810.88;5021879;28;20437;-73
2023/02/20 00:34:57;;;;;;;;;;;;;;;7.19;97.36;97814.41;5023144;28;19924;-70
2023/02/20 00:37:23;;;;;;;;;;;;;;;7.17;98.21;97814.72;5018847;28;20425;-73
2023/02/20 00:39:48;;;;;;;;;;;;;;;7.19;97.88;97815.19;5023381;28;20340;-71
2023/02/20 00:42:13;;;;;;;;;;;;;;;7.23;98.01;97818.88;5018762;28;19917;-72
2023/02/20 00:44:38;;;;;;;;;;;;;;;7.12;98.28;97820.31;5022805;28;19932;-71
2023/02/20 00:47:04;;;;;;;;;;;;;;;7.22;98.35;97817.28;5019619;28;19923;-74
2023/02/20 00:49:29;;;;;;;;;;;;;;;7.22;98.65;97816.47;5021093;28;20346;-74
2023/02/20 00:51:54;;;;;;;;;;;;;;;7.15;98.79;97827.03;5023493;28;20003;-74
2023/02/20 00:54:20;;;;;;;;;;;;;;;7.21;99.08;97832.03;5017980;28;20012;-73
2023/02/20 00:56:45;;;;;;;;;;;;;;;7.20;98.96;97822.25;5022879;28;19928;-73
2023/02/20 00:59:10;;;;;;;;;;;;;;;7.18;98.93;97823.69;5018064;28;19921;-73
2023/02/20 01:01:36;;;;;;;;;;;;;;;7.23;99.06;97820.81;5022844;28;19928;-74
2023/02/20 01:04:01;;;;;;;;;;;;;;;7.22;99.38;97816.47;5022680;28;19929;-74
2023/02/20 01:06:26;;;;;;;;;;;;;;;7.10;99.47;97824.47;5018380;28;19917;-73
2023/02/20 01:08:51;;;;;;;;;;;;;;;7.06;99.72;97827.81;5023162;28;19921;-72
2023/02/20 01:11:17;;;;;;;;;;;;;;;7.17;99.76;97831.06;5018542;28;20020;-74
2023/02/20 01:13:42;;;;;;;;;;;;;;;7.25;98.98;97843.09;5022635;28;19921;-74
2023/02/20 01:16:07;;;;;;;;;;;;;;;7.27;99.08;97838.13;5018323;28;19968;-74
2023/02/20 01:18:33;;;;;;;;;;;;;;;7.21;99.56;97829.31;5022763;28;19917;-73
2023/02/20 01:20:58;;;;;;;;;;;;;;;7.14;99.83;97836.34;5022748;28;19917;-73
2023/02/20 01:23:23;;;;;;;;;;;;;;;7.02;99.61;97832.31;5017920;28;20380;-73
2023/02/20 01:25:48;;;;;;;;;;;;;;;7.00;100.00;97825.56;5022765;28;19924;-72
2023/02/20 01:28:14;;;;;;;;;;;;;;;6.98;100.00;97820.41;5017547;28;19931;-73
2023/02/20 01:30:39;;;;;;;;;;;;;;;7.08;100.00;97824.78;5021880;28;19917;-74
2023/02/20 01:33:04;;;;;;;;;;;;;;;7.01;100.00;97832.63;5019043;28;19917;-73
2023/02/20 01:35:30;;;;;;;;;;;;;;;6.94;100.00;97835.78;5004268;28;19921;-73
2023/02/20 01:37:59;;;;;;;;;;;;;;;7.02;100.00;97835.03;5023006;28;19942;-73
2023/02/20 01:40:26;;;;;;;;;;;;;;;6.95;100.00;97834.69;5018481;28;19988;-73
2023/02/20 01:42:51;;;;;;;;;;;;;;;6.86;100.00;97834.66;5021792;28;20359;-75
2023/02/20 01:45:26;;;;;;;;;;;;;;;6.94;100.00;97838.50;5014962;28;20004;-74
2023/02/20 01:47:52;;;;;;;;;;;;;;;6.96;100.00;97833.56;5021899;28;19917;-74
2023/02/20 01:50:18;;;;;;;;;;;;;;;7.02;100.00;97839.66;5018073;28;20433;-75
2023/02/20 01:52:46;;;;;;;;;;;;;;;7.16;100.00;97837.63;5020173;28;19927;-73
2023/02/20 01:55:16;;;;;;;;;;;;;;;7.22;100.00;97836.38;5017094;28;20333;-74
2023/02/20 01:57:47;;;;;;;;;;;;;;;7.18;99.75;97842.75;5020649;28;19921;-74
2023/02/20 02:00:14;;;;;;;;;;;;;;;7.12;99.58;97838.59;5017055;28;19917;-72
2023/02/20 02:02:41;;;;;;;;;;;;;;;6.82;100.00;97833.66;5021577;28;19928;-72
2023/02/20 02:05:09;;;;;;;;;;;;;;;6.61;100.00;97830.69;5016817;28;20314;-75
2023/02/20 02:07:35;;;;;;;;;;;;;;;6.57;100.00;97827.00;5022030;28;20377;-75
2023/02/20 02:10:12;;;;;;;;;;;;;;;6.64;100.00;97829.25;5020700;28;19932;-75
2023/02/20 02:12:38;;;;;;;;;;;;;;;6.56;100.00;97819.13;5020530;28;19917;-75
2023/02/20 02:15:15;;;;;;;;;;;;;;;6.50;100.00;97832.09;5018184;28;19921;-76
2023/02/20 02:17:46;;;;;;;;;;;;;;;6.36;100.00;97821.28;5022205;28;19917;-74
2023/02/20 02:20:24;;;;;;;;;;;;;;;6.15;100.00;97817.47;5018613;28;20043;-73
2023/02/20 02:23:08;;;;;;;;;;;;;;;6.03;100.00;97823.44;5020811;28;20402;-74
2023/02/20 02:25:48;;;;;;;;;;;;;;;5.97;100.00;97821.97;5022180;28;19917;-74
2023/02/20 02:28:27;;;;;;;;;;;;;;;5.95;100.00;97822.25;5022557;28;19917;-74
2023/02/20 02:31:11;;;;;;;;;;;;;;;5.92;100.00;97817.41;5031014;28;19925;-73
2023/02/20 02:33:51;;;;;;;;;;;;;;;6.03;100.00;97821.56;5020088;28;20432;-73
2023/02/20 02:36:20;;;;;;;;;;;;;;;6.03;100.00;97824.28;5014960;28;19924;-72
2023/02/20 02:38:50;;;;;;;;;;;;;;;5.99;100.00;97828.69;5020327;28;19994;-75
2023/02/20 02:41:30;;;;;;;;;;;;;;;5.89;100.00;97828.94;5018295;28;20393;-75
2023/02/20 02:44:16;;;;;;;;;;;;;;;5.72;100.00;97829.56;5022519;28;19965;-72
2023/02/20 02:46:55;;;;;;;;;;;;;;;5.64;100.00;97825.69;5020902;28;19979;-74
2023/02/20 02:49:34;;;;;;;;;;;;;;;5.59;100.00;97816.84;5016409;28;19932;-73
2023/02/20 02:52:00;;;;;;;;;;;;;;;5.57;100.00;97813.63;5021884;28;19917;-74
2023/02/20 02:54:26;;;;;;;;;;;;;;;5.51;100.00;97811.03;5017075;28;19925;-72
2023/02/20 02:56:52;;;;;;;;;;;;;;;5.48;100.00;97816.28;5021759;28;19921;-73
2023/02/20 02:59:31;;;;;;;;;;;;;;;5.44;100.00;97809.81;5017391;28;20370;-72
2023/02/20 03:02:02;;;;;;;;;;;;;;;5.39;100.00;97812.66;5021551;28;20401;-73
2023/02/20 03:04:28;;;;;;;;;;;;;;;5.28;100.00;97810.16;5016626;28;19928;-72
2023/02/20 03:06:57;;;;;;;;;;;;;;;5.21;100.00;97815.22;5021340;28;19936;-72
2023/02/20 03:09:25;;;;;;;;;;;;;;;5.19;100.00;97812.00;5017764;28;20386;-73
2023/02/20 03:11:52;;;;;;;;;;;;;;;5.22;100.00;97805.97;5027813;28;20437;-73
2023/02/20 03:17:14;;;;;;;;;;;;;;;5.35;100.00;97802.41;5040064;28;19939;-76
2023/02/20 03:19:39;;;;;;;;;;;;;;;5.38;100.00;97797.47;5025702;28;19917;-74
2023/02/20 03:22:08;;;;;;;;;;;;;;;5.39;100.00;97796.38;5020791;28;20281;-76
2023/02/20 03:24:53;;;;;;;;;;;;;;;5.42;100.00;97793.03;5025051;28;19955;-71
2023/02/20 03:27:20;;;;;;;;;;;;;;;5.47;100.00;97790.19;5018634;28;19917;-74
2023/02/20 03:29:46;;;;;;;;;;;;;;;5.33;100.00;97788.34;5024532;28;19924;-74
2023/02/20 03:43:27;;;;;;;;;;;;;;;4.97;100.00;97764.66;5018628;28;19929;-72
2023/02/20 03:46:11;;;;;;;;;;;;;;;4.67;100.00;97771.50;5024456;28;19925;-72
2023/02/20 03:48:57;;;;;;;;;;;;;;;4.47;100.00;97764.56;5024191;28;19926;-72
2023/02/20 03:51:32;;;;;;;;;;;;;;;4.30;100.00;97767.84;5024706;28;19917;-73
2023/02/20 03:53:58;;;;;;;;;;;;;;;4.06;100.00;97767.22;5024105;28;19959;-73
2023/02/20 03:56:29;;;;;;;;;;;;;;;3.85;100.00;97767.56;5019783;28;20354;-72
2023/02/20 03:58:57;;;;;;;;;;;;;;;3.78;100.00;97769.84;5025101;28;19929;-74
2023/02/20 04:01:25;;;;;;;;;;;;;;;3.69;100.00;97772.44;5019904;28;20711;-73
2023/02/20 04:03:51;;;;;;;;;;;;;;;3.56;100.00;97781.28;5024863;28;20005;-73
2023/02/20 04:06:17;;;;;;;;;;;;;;;3.57;100.00;97778.28;5018213;28;19928;-73
2023/02/20 04:08:50;;;;;;;;;;;;;;;3.61;100.00;97778.50;5023816;28;20398;-73
2023/02/20 04:11:31;;;;;;;;;;;;;;;3.60;100.00;97766.06;5019310;28;20022;-73
2023/02/20 04:13:59;;;;;;;;;;;;;;;3.63;100.00;97765.47;5026217;28;20294;-71
2023/02/20 04:16:24;;;;;;;;;;;;;;;3.58;100.00;97773.69;5020621;28;19918;-73
2023/02/20 04:18:50;;;;;;;;;;;;;;;3.54;100.00;97778.06;5024680;28;19943;-72
2023/02/20 04:21:38;;;;;;;;;;;;;;;3.48;100.00;97777.34;5017611;28;19921;-71
2023/02/20 04:24:06;;;;;;;;;;;;;;;3.33;100.00;97767.56;5017199;28;20455;-75
2023/02/20 04:26:32;;;;;;;;;;;;;;;3.24;100.00;97766.59;5023761;28;19924;-71
2023/02/20 04:28:57;;;;;;;;;;;;;;;3.16;100.00;97759.13;5024688;28;19918;-73
2023/02/20 04:31:23;;;;;;;;;;;;;;;3.10;100.00;97768.41;5019545;28;19952;-73
2023/02/20 04:33:48;;;;;;;;;;;;;;;3.12;100.00;97763.53;5024635;28;19921;-71
2023/02/20 04:36:13;;;;;;;;;;;;;;;3.16;100.00;97773.47;5018871;28;19917;-72
2023/02/20 04:38:39;;;;;;;;;;;;;;;3.24;100.00;97767.41;5023916;28;19944;-71
2023/02/20 04:41:04;;;;;;;;;;;;;;;3.27;100.00;97767.91;5019453;28;19940;-73
2023/02/20 04:43:29;;;;;;;;;;;;;;;3.21;100.00;97768.00;5024376;28;19921;-71
2023/02/20 04:45:54;;;;;;;;;;;;;;;3.21;100.00;97768.00;5036675;28;19928;-73
2023/02/20 04:48:20;;;;;;;;;;;;;;;3.19;100.00;97774.81;5037859;28;19924;-72
2023/02/20 04:50:45;;;;;;;;;;;;;;;3.16;100.00;97768.06;5046236;28;19921;-72
2023/02/20 04:53:11;;;;;;;;;;;;;;;3.11;100.00;97757.28;5039994;28;19917;-72
2023/02/20 04:55:36;;;;;;;;;;;;;;;3.06;100.00;97770.88;5037636;28;19921;-71
2023/02/20 04:58:01;;;;;;;;;;;;;;;3.02;100.00;97765.25;5035014;28;19928;-73
2023/02/20 05:00:27;;;;;;;;;;;;;;;2.98;100.00;97774.25;5033281;28;19979;-72
2023/02/20 05:02:52;;;;;;;;;;;;;;;2.88;100.00;97775.19;5026801;28;20404;-73
2023/02/20 05:05:22;;;;;;;;;;;;;;;2.84;100.00;97772.25;5035734;28;19945;-75
2023/02/20 05:07:47;;;;;;;;;;;;;;;2.77;100.00;97779.13;5036680;28;20380;-73
2023/02/20 05:10:16;;;;;;;;;;;;;;;2.72;100.00;97773.75;5031344;28;19984;-74
2023/02/20 05:12:48;;;;;;;;;;;;;;;2.63;100.00;97763.59;5036928;28;19917;-72
2023/02/20 05:15:14;;;;;;;;;;;;;;;2.59;100.00;97765.28;5035439;28;19925;-70
2023/02/20 05:17:39;;;;;;;;;;;;;;;2.61;100.00;97767.66;5037848;28;19952;-73
2023/02/20 05:20:05;;;;;;;;;;;;;;;2.63;100.00;97765.50;5029765;28;19917;-73
2023/02/20 05:22:30;;;;;;;;;;;;;;;2.66;100.00;97776.53;5035566;28;19928;-72
2023/02/20 05:24:56;;;;;;;;;;;;;;;2.71;100.00;97770.25;5038684;28;19946;-73
2023/02/20 05:27:22;;;;;;;;;;;;;;;2.67;100.00;97771.94;5038564;28;20081;-73
2023/02/20 05:29:48;;;;;;;;;;;;;;;2.38;100.00;97772.81;5045624;28;19928;-73
2023/02/20 05:32:15;;;;;;;;;;;;;;;2.34;100.00;97779.06;5037965;28;19944;-73
2023/02/20 05:34:40;;;;;;;;;;;;;;;2.34;100.00;97784.47;5043853;28;19928;-73
2023/02/20 05:37:06;;;;;;;;;;;;;;;2.31;100.00;97779.66;5040305;28;19917;-72
2023/02/20 05:39:31;;;;;;;;;;;;;;;2.13;100.00;97770.38;5042627;28;19917;-71
2023/02/20 05:41:56;;;;;;;;;;;;;;;1.91;100.00;97768.94;5026919;28;19917;-73
2023/02/20 05:44:21;;;;;;;;;;;;;;;1.69;100.00;97759.41;5024560;28;19987;-71
2023/02/20 05:46:47;;;;;;;;;;;;;;;1.53;100.00;97761.41;5028593;28;19921;-71
2023/02/20 05:49:12;;;;;;;;;;;;;;;1.51;100.00;97765.47;5025409;28;19921;-72
2023/02/20 05:51:37;;;;;;;;;;;;;;;1.63;100.00;97763.22;5024000;28;19978;-69
2023/02/20 05:54:03;;;;;;;;;;;;;;;1.77;100.00;97763.38;5021716;28;20008;-72
2023/02/20 05:56:29;;;;;;;;;;;;;;;1.87;100.00;97762.47;5004566;28;20370;-69
2023/02/20 05:58:54;;;;;;;;;;;;;;;1.73;100.00;97775.84;5021524;28;19920;-69
2023/02/20 06:01:21;;;;;;;;;;;;;;;1.77;100.00;97774.19;5018067;28;19922;-71
2023/02/20 06:03:46;;;;;;;;;;;;;;;1.90;100.00;97773.50;5024270;28;20022;-72
2023/02/20 06:06:12;;;;;;;;;;;;;;;1.91;100.00;97775.16;5017952;28;20007;-72
2023/02/20 06:08:38;;;;;;;;;;;;;;;1.86;100.00;97767.06;5022913;28;19917;-71
2023/02/20 06:11:03;;;;;;;;;;;;;;;1.79;100.00;97769.28;5019609;28;19924;-71
2023/02/20 06:13:28;;;;;;;;;;;;;;;1.34;100.00;97768.56;5021056;28;20286;-70
2023/02/20 06:15:54;;;;;;;;;;;;;;;1.11;100.00;97765.44;5053599;28;19916;-70
2023/02/20 06:18:19;;;;;;;;;;;;;;;1.07;100.00;97775.19;5057238;28;20389;-70
2023/02/20 06:20:44;;;;;;;;;;;;;;;1.05;100.00;97766.56;5062657;28;19916;-69
2023/02/20 06:23:09;;;;;;;;;;;;;;;1.07;100.00;97769.00;5057014;28;20118;-70
2023/02/20 06:25:35;;;;;;;;;;;;;;;1.14;100.00;97769.50;5063428;28;19917;-71
2023/02/20 06:28:00;;;;;;;;;;;;;;;1.19;100.00;97760.53;5062014;28;19978;-71
2023/02/20 06:30:25;;;;;;;;;;;;;;;1.21;100.00;97763.78;5057014;28;19928;-70
2023/02/20 06:32:50;;;;;;;;;;;;;;;1.34;100.00;97771.25;5062138;28;19916;-69
2023/02/20 06:35:16;;;;;;;;;;;;;;;1.43;100.00;97761.47;5058787;28;19916;-72
2023/02/20 06:37:42;;;;;;;;;;;;;;;1.56;100.00;97776.22;5062452;28;19985;-71
2023/02/20 06:40:07;;;;;;;;;;;;;;;1.59;100.00;97777.56;5057006;28;19928;-72
2023/02/20 06:42:33;;;;;;;;;;;;;;;1.79;100.00;97782.81;5060191;28;19925;-71
2023/02/20 06:44:58;;;;;;;;;;;;;;;1.95;100.00;97777.28;5062563;28;20297;-72
2023/02/20 06:47:23;;;;;;;;;;;;;;;2.14;100.00;97772.75;5060593;28;19927;-71
2023/02/20 06:49:48;;;;;;;;;;;;;;;2.35;100.00;97781.47;5066094;28;19924;-72
2023/02/20 06:52:14;;;;;;;;;;;;;;;2.49;100.00;97779.69;5059573;28;19916;-70
2023/02/20 06:54:39;;;;;;;;;;;;;;;2.60;100.00;97772.28;5065846;28;19916;-73
2023/02/20 06:57:05;;;;;;;;;;;;;;;2.68;100.00;97771.66;5060930;28;19960;-75
2023/02/20 06:59:30;;;;;;;;;;;;;;;2.74;100.00;97774.28;5065356;28;19955;-74
2023/02/20 07:01:56;;;;;;;;;;;;;;;2.52;100.00;97772.09;5066072;28;20025;-73
2023/02/20 07:04:22;;;;;;;;;;;;;;;2.42;100.00;97773.03;5060768;28;20400;-70
2023/02/20 07:06:48;;;;;;;;;;;;;;;2.18;100.00;97776.53;5065313;28;19944;-71
2023/02/20 07:09:14;;;;;;;;;;;;;;;2.46;100.00;97784.88;5061137;28;19970;-72
2023/02/20 07:11:39;;;;;;;;;;;;;;;3.00;100.00;97777.47;5065332;28;19920;-72
2023/02/20 07:14:05;;;;;;;;;;;;;;;4.02;100.00;97783.28;5061430;28;19947;-71
2023/02/20 07:16:31;;;;;;;;;;;;;;;4.76;100.00;97772.41;5064894;28;19916;-73
2023/02/20 07:18:56;;;;;;;;;;;;;;;5.43;100.00;97783.78;5064831;28;19923;-71
2023/02/20 07:21:22;;;;;;;;;;;;;;;6.22;100.00;97782.47;5062421;28;20197;-74
2023/02/20 07:23:50;;;;;;;;;;;;;;;6.95;95.94;97782.94;5069985;28;19921;-71
2023/02/20 07:26:19;;;;;;;;;;;;;;;7.18;89.64;97777.38;5063905;28;19920;-73
2023/02/20 07:28:44;;;;;;;;;;;;;;;7.89;85.98;97787.19;5065281;28;19981;-72
2023/02/20 07:31:10;;;;;;;;;;;;;;;8.41;83.47;97789.84;5060443;28;19924;-72
2023/02/20 07:33:36;;;;;;;;;;;;;;;8.75;79.86;97791.66;5065432;28;20369;-72
2023/02/20 07:36:02;;;;;;;;;;;;;;;8.91;75.71;97793.84;5062134;28;20017;-76
2023/02/20 07:38:27;;;;;;;;;;;;;;;6.74;88.28;97782.69;5060089;28;20012;-70
2023/02/20 07:40:52;;;;;;;;;;;;;;;6.67;93.20;97776.91;5065054;28;19985;-72
2023/02/20 07:43:18;;;;;;;;;;;;;;;6.97;89.76;97777.16;5061125;28;19928;-73
2023/02/20 07:45:43;;;;;;;;;;;;;;;7.89;88.07;97779.03;5065313;28;19916;-71
2023/02/20 07:48:08;;;;;;;;;;;;;;;9.06;80.61;97779.63;5060676;28;19920;-72
2023/02/20 07:50:34;;;;;;;;;;;;;;;9.86;75.10;97772.44;5065146;28;20003;-74
2023/02/20 07:52:59;;;;;;;;;;;;;;;10.38;71.69;97771.97;5065577;28;20381;-72
2023/02/20 07:55:24;;;;;;;;;;;;;;;10.81;68.66;97772.59;5059606;28;20292;-70
2023/02/20 07:57:53;;;;;;;;;;;;;;;10.66;68.71;97774.06;5064100;28;19924;-74
2023/02/20 08:00:19;;;;;;;;;;;;;;;9.29;77.83;97774.66;5060593;28;20251;-72
2023/02/20 08:02:44;;;;;;;;;;;;;;;8.50;78.71;97782.44;5062024;28;20397;-72
2023/02/20 08:05:10;;;;;;;;;;;;;;;8.97;81.51;97778.88;5057986;28;19916;-74
2023/02/20 08:07:35;;;;;;;;;;;;;;;7.53;86.14;97778.22;5063962;28;19924;-73
2023/02/20 08:10:01;;;;;;;;;;;;;;;7.10;93.56;97775.44;5064278;28;20407;-74
2023/02/20 08:12:26;;;;;;;;;;;;;;;7.50;92.89;97776.13;5058978;28;19960;-72
2023/02/20 08:14:52;;;;;;;;;;;;;;;6.91;95.79;97771.03;5063895;28;19924;-74
2023/02/20 08:17:17;;;;;;;;;;;;;;;7.25;96.31;97777.69;5058192;28;19920;-72
2023/02/20 08:19:42;;;;;;;;;;;;;;;8.52;92.37;97776.66;5063399;28;19925;-73
2023/02/20 08:22:08;;;;;;;;;;;;;;;10.46;80.11;97768.34;5059815;28;19920;-72
2023/02/20 08:24:33;;;;;;;;;;;;;;;11.75;69.69;97773.50;5062834;28;20294;-74
2023/02/20 08:26:58;;;;;;;;;;;;;;;12.83;64.51;97763.44;5064722;28;19971;-74
2023/02/20 08:29:23;;;;;;;;;;;;;;;13.72;61.53;97772.16;5059465;28;20205;-73
2023/02/20 08:31:49;;;;;;;;;;;;;;;14.39;58.55;97773.91;5062830;28;19916;-74
2023/02/20 08:34:14;;;;;;;;;;;;;;;12.32;65.53;97771.59;5040938;28;19927;-73
2023/02/20 08:36:39;;;;;;;;;;;;;;;12.87;63.18;97764.31;5043151;28;19980;-74
2023/02/20 08:39:05;;;;;;;;;;;;;;;13.98;58.53;97752.25;5039029;28;19917;-70
2023/02/20 08:41:30;;;;;;;;;;;;;;;13.10;60.43;97764.50;5044149;28;20389;-74
2023/02/20 08:43:55;;;;;;;;;;;;;;;13.13;59.16;97771.25;5043134;28;19925;-73
2023/02/20 08:46:21;;;;;;;;;;;;;;;13.65;59.82;97756.31;5036371;28;19925;-73
2023/02/20 08:48:46;;;;;;;;;;;;;;;14.88;53.75;97759.41;5044046;28;19917;-74
2023/02/20 08:51:11;;;;;;;;;;;;;;;14.26;56.24;97752.00;5039488;28;19920;-73
2023/02/20 08:53:37;;;;;;;;;;;;;;;14.65;54.39;97743.66;5042802;28;20055;-73
2023/02/20 08:56:04;;;;;;;;;;;;;;;14.62;54.23;97744.41;5041322;28;19921;-69
2023/02/20 08:58:29;;;;;;;;;;;;;;;15.03;52.89;97743.88;5041693;28;20002;-72
2023/02/20 09:00:54;;;;;;;;;;;;;;;14.95;52.83;97742.97;5041701;28;20011;-73
2023/02/20 09:03:20;;;;;;;;;;;;;;;12.89;58.13;97742.81;5043862;28;19929;-71
2023/02/20 09:05:45;;;;;;;;;;;;;;;12.95;59.59;97738.63;5052439;28;20440;-73
2023/02/20 09:08:11;;;;;;;;;;;;;;;13.90;55.43;97731.22;5043141;28;19916;-73
2023/02/20 09:10:36;;;;;;;;;;;;;;;15.34;52.10;97737.25;5025078;28;19921;-73
2023/02/20 09:13:02;;;;;;;;;;;;;;;15.65;50.59;97722.28;5022939;28;20572;-69
2023/02/20 09:15:28;;;;;;;;;;;;;;;15.10;51.97;97728.22;5019587;28;19971;-74
2023/02/20 09:17:53;;;;;;;;;;;;;;;15.91;49.73;97722.59;5022840;28;20454;-74
2023/02/20 09:20:20;;;;;;;;;;;;;;;16.20;48.48;97721.72;5019366;28;19917;-73
2023/02/20 09:22:46;;;;;;;;;;;;;;;15.63;48.95;97723.81;5023876;28;20366;-72
2023/02/20 09:25:11;;;;;;;;;;;;;;;15.81;49.88;97729.56;5016155;28;19921;-73
2023/02/20 09:27:37;;;;;;;;;;;;;;;16.12;48.07;97724.81;5021657;28;19947;-73
2023/02/20 09:30:05;;;;;;;;;;;;;;;17.29;46.17;97726.22;5020165;28;19925;-71
2023/02/20 09:32:31;;;;;;;;;;;;;;;18.16;43.81;97714.34;5022712;28;20449;-73
2023/02/20 09:34:56;;;;;;;;;;;;;;;18.27;42.93;97717.94;5004484;28;19956;-71
2023/02/20 09:37:22;;;;;;;;;;;;;;;17.28;44.66;97713.56;5015562;28;20145;-73
2023/02/20 09:39:47;;;;;;;;;;;;;;;15.24;48.15;97705.56;5020566;28;19916;-73
2023/02/20 09:42:12;;;;;;;;;;;;;;;16.43;45.97;97712.50;5017060;28;19963;-72
2023/02/20 09:44:56;;;;;;;;;;;;;;;15.68;48.89;97704.97;5022319;28;19928;-74
2023/02/20 09:47:25;;;;;;;;;;;;;;;16.99;44.77;97703.09;5020216;28;19917;-74
2023/02/20 09:49:52;;;;;;;;;;;;;;;18.24;42.94;97706.84;5023132;28;20016;-74
2023/02/20 09:52:17;;;;;;;;;;;;;;;15.80;47.31;97708.66;5017340;28;20338;-72
2023/02/20 09:54:46;;;;;;;;;;;;;;;16.37;47.03;97695.44;5020393;28;19928;-75
2023/02/20 09:57:14;;;;;;;;;;;;;;;17.10;44.42;97696.84;5018202;28;19917;-74
2023/02/20 09:59:40;;;;;;;;;;;;;;;17.85;42.54;97691.69;5006495;28;19971;-74
2023/02/20 10:02:17;;;;;;;;;;;;;;;18.62;41.05;97685.91;5015119;28;20327;-73
2023/02/20 10:04:45;;;;;;;;;;;;;;;19.11;40.01;97689.06;5022478;28;20433;-73
2023/02/20 10:07:19;;;;;;;;;;;;;;;18.59;41.38;97683.91;5015506;28;19921;-76
2023/02/20 10:09:44;;;;;;;;;;;;;;;17.63;43.74;97685.25;5023378;28;19924;-74
2023/02/20 10:12:18;;;;;;;;;;;;;;;16.73;44.91;97687.47;5018430;28;19917;-72
2023/02/20 10:15:02;;;;;;;;;;;;;;;15.44;46.91;97691.63;5022322;28;19921;-72
2023/02/20 10:17:33;;;;;;;;;;;;;;;15.34;47.92;97690.31;4999120;28;19963;-74
2023/02/20 10:20:08;;;;;;;;;;;;;;;16.07;46.54;97694.75;5023822;28;19921;-74
2023/02/20 10:22:35;;;;;;;;;;;;;;;15.46;47.50;97683.75;5027002;28;19929;-73
2023/02/20 10:25:09;;;;;;;;;;;;;;;16.12;46.09;97688.91;5029473;28;19928;-73
2023/02/20 10:27:52;;;;;;;;;;;;;;;15.99;46.43;97689.16;5025514;28;20007;-74
2023/02/20 10:30:21;;;;;;;;;;;;;;;15.83;46.27;97694.13;5020841;28;19960;-73
2023/02/20 10:32:55;;;;;;;;;;;;;;;16.62;43.97;97684.63;5025455;28;19956;-74
2023/02/20 10:35:23;;;;;;;;;;;;;;;16.21;45.13;97689.38;5021085;28;19924;-71
2023/02/20 10:37:52;;;;;;;;;;;;;;;16.14;45.85;97687.34;5025751;28;19921;-72
2023/02/20 10:40:17;;;;;;;;;;;;;;;16.72;44.28;97685.06;5021232;28;20025;-74
2023/02/20 10:42:49;;;;;;;;;;;;;;;16.66;44.13;97676.34;5027383;28;20019;-75
2023/02/20 10:45:21;;;;;;;;;;;;;;;16.56;44.73;97686.13;5021499;28;19921;-74
2023/02/20 10:47:49;;;;;;;;;;;;;;;16.22;44.72;97680.72;5027561;28;19971;-75
2023/02/20 10:50:21;;;;;;;;;;;;;;;16.99;43.15;97666.31;5025427;28;19956;-74
2023/02/20 10:53:05;;;;;;;;;;;;;;;17.16;42.94;97665.66;5027954;28;20002;-75
2023/02/20 10:55:45;;;;;;;;;;;;;;;16.67;43.48;97668.84;5024927;28;19924;-75
2023/02/20 10:58:30;;;;;;;;;;;;;;;16.19;44.05;97659.34;5021085;28;20425;-72
2023/02/20 11:01:04;;;;;;;;;;;;;;;16.39;44.19;97661.91;5024736;28;20404;-73
2023/02/20 11:03:33;;;;;;;;;;;;;;;15.99;44.86;97660.72;5024945;28;19932;-72
2023/02/20 11:06:00;;;;;;;;;;;;;;;16.35;44.57;97652.75;5024400;28;19917;-74
2023/02/20 11:08:25;;;;;;;;;;;;;;;15.56;45.21;97651.94;5019938;28;20015;-73
2023/02/20 11:10:53;;;;;;;;;;;;;;;16.20;44.59;97652.63;5025843;28;20015;-73
2023/02/20 11:13:21;;;;;;;;;;;;;;;16.41;44.52;97642.97;5020478;28;19917;-74
2023/02/20 11:15:49;;;;;;;;;;;;;;;16.09;44.59;97645.44;5022331;28;20437;-74
2023/02/20 11:18:19;;;;;;;;;;;;;;;15.44;45.17;97639.16;5019985;28;20015;-73
2023/02/20 11:20:45;;;;;;;;;;;;;;;16.22;44.82;97641.19;5024725;28;19924;-74
2023/02/20 11:23:30;;;;;;;;;;;;;;;16.31;44.78;97638.91;5020480;28;19921;-73
2023/02/20 11:26:11;;;;;;;;;;;;;;;16.43;44.58;97635.06;5023821;28;19921;-73
2023/02/20 11:28:38;;;;;;;;;;;;;;;16.74;43.40;97636.47;5024426;28;19921;-73
2023/02/20 11:31:05;;;;;;;;;;;;;;;16.89;43.75;97634.66;5020559;28;19927;-70
2023/02/20 11:33:33;;;;;;;;;;;;;;;16.15;44.85;97622.59;5023907;28;19917;-73
2023/02/20 11:36:08;;;;;;;;;;;;;;;15.53;45.27;97623.09;5019933;28;20337;-74
2023/02/20 11:38:34;;;;;;;;;;;;;;;15.28;46.68;97623.59;5020597;28;19923;-72
2023/02/20 11:41:01;;;;;;;;;;;;;;;15.20;46.91;97610.09;5024021;28;19924;-73
2023/02/20 11:43:29;;;;;;;;;;;;;;;15.29;46.52;97610.59;5020127;28;19921;-73
2023/02/20 11:46:13;;;;;;;;;;;;;;;15.00;46.96;97603.91;5026205;28;19917;-74
2023/02/20 11:48:56;;;;;;;;;;;;;;;15.07;47.67;97606.75;5025932;28;19979;-72
2023/02/20 11:51:33;;;;;;;;;;;;;;;15.78;46.23;97608.81;5020140;28;20130;-73
2023/02/20 11:54:17;;;;;;;;;;;;;;;15.88;46.05;97604.56;5024126;28;19991;-73
2023/02/20 11:57:00;;;;;;;;;;;;;;;16.36;45.08;97588.00;5024632;28;20015;-74
2023/02/20 11:59:31;;;;;;;;;;;;;;;17.15;43.66;97589.31;5018797;28;20114;-73
2023/02/20 12:02:14;;;;;;;;;;;;;;;17.78;42.53;97587.13;5023211;28;19967;-73
2023/02/20 12:04:40;;;;;;;;;;;;;;;17.68;42.80;97568.53;5023429;28;19921;-73
2023/02/20 12:07:18;;;;;;;;;;;;;;;17.92;41.70;97575.31;5019542;28;19917;-70
2023/02/20 12:09:45;;;;;;;;;;;;;;;17.28;43.36;97567.59;5024132;28;19963;-73
2023/02/20 12:12:12;;;;;;;;;;;;;;;18.10;41.41;97561.47;5019394;28;19921;-74
2023/02/20 12:14:38;;;;;;;;;;;;;;;18.56;40.84;97557.09;5024207;28;19917;-74
2023/02/20 12:17:26;;;;;;;;;;;;;;;17.92;40.87;97546.81;5020716;28;20051;-70
2023/02/20 12:20:08;;;;;;;;;;;;;;;17.72;40.75;97546.38;5021118;28;20012;-73
2023/02/20 12:22:34;;;;;;;;;;;;;;;17.18;42.07;97552.56;5021751;28;19933;-73
2023/02/20 12:25:18;;;;;;;;;;;;;;;17.25;42.43;97529.66;5022348;28;19925;-73
2023/02/20 12:28:02;;;;;;;;;;;;;;;17.89;40.76;97525.44;5023430;28;19917;-74
2023/02/20 12:30:31;;;;;;;;;;;;;;;17.12;42.31;97525.63;5021594;28;19917;-73
2023/02/20 12:33:05;;;;;;;;;;;;;;;17.45;41.58;97529.28;5004873;28;19921;-73
2023/02/20 12:35:34;;;;;;;;;;;;;;;17.78;40.33;97523.41;5022030;28;19917;-72
2023/02/20 12:38:20;;;;;;;;;;;;;;;18.01;40.31;97519.50;5021390;28;19918;-73
2023/02/20 12:40:58;;;;;;;;;;;;;;;18.20;39.80;97523.06;5021747;28;19950;-71
2023/02/20 12:43:42;;;;;;;;;;;;;;;18.08;40.72;97513.97;5016066;28;20039;-73
2023/02/20 12:46:25;;;;;;;;;;;;;;;17.06;42.39;97510.59;5015969;28;20012;-73
2023/02/20 12:49:09;;;;;;;;;;;;;;;18.00;41.10;97506.81;5023481;28;19928;-72
2023/02/20 12:51:35;;;;;;;;;;;;;;;18.25;40.81;97506.03;5021978;28;20550;-74
2023/02/20 12:54:03;;;;;;;;;;;;;;;18.17;39.97;97498.88;5024864;28;19921;-74
2023/02/20 12:56:37;;;;;;;;;;;;;;;17.27;41.77;97498.78;5020482;28;19918;-74
2023/02/20 12:59:02;;;;;;;;;;;;;;;16.86;42.23;97490.75;5020218;28;20019;-70
2023/02/20 13:01:27;;;;;;;;;;;;;;;16.82;45.53;97483.19;5020682;28;20007;-74
2023/02/20 13:03:56;;;;;;;;;;;;;;;16.28;46.16;97473.84;5021968;28;20007;-73
2023/02/20 13:06:24;;;;;;;;;;;;;;;16.44;46.65;97473.53;5017587;28;20343;-71
2023/02/20 13:08:49;;;;;;;;;;;;;;;15.94;47.67;97456.63;5022559;28;19940;-74